This is the latest recevied weather packets stored in our database for station/object N7NIP. If no packets are shown the sender has not sent any weather packets the latest 10 day(s).
| Time | Temp. | Humidity | Pressure | Rain* | Wind** | Luminosity | Snow |
|---|---|---|---|---|---|---|---|
| 1777508289 | 20° C | 55% | 1035.7 hPa | 0 mm | - | 417 W/m² | - |
| 1777507986 | 20° C | 51% | 1035.8 hPa | 0 mm | - | 434 W/m² | - |
| 1777507683 | 19.44° C | 52% | 1035.9 hPa | 0 mm | - | 450 W/m² | - |
| 1777507380 | 20° C | 49% | 1036 hPa | 0 mm | - | 467 W/m² | - |
| 1777507077 | 19.44° C | 53% | 1036 hPa | 0 mm | - | 480 W/m² | - |
| 1777506775 | 19.44° C | 52% | 1036.2 hPa | 0 mm | - | 497 W/m² | - |
| 1777506471 | 19.44° C | 50% | 1036 hPa | 0 mm | - | 512 W/m² | - |
| 1777506167 | 19.44° C | 50% | 1036.2 hPa | 0 mm | - | 533 W/m² | - |
| 1777505862 | 18.89° C | 51% | 1036.1 hPa | 0 mm | - | 549 W/m² | - |
| 1777505559 | 19.44° C | 50% | 1036.2 hPa | 0 mm | - | 567 W/m² | - |
| 1777505256 | 18.89° C | 52% | 1036.3 hPa | 0 mm | - | 583 W/m² | - |
| 1777504952 | 19.44° C | 52% | 1036.3 hPa | 0 mm | - | 599 W/m² | - |
| 1777504650 | 19.44° C | 53% | 1036.3 hPa | 0 mm | - | 614 W/m² | - |
| 1777504347 | 19.44° C | 53% | 1036.4 hPa | 0 mm | - | 629 W/m² | - |
| 1777504040 | 19.44° C | 52% | 1036.6 hPa | 0 mm | - | 643 W/m² | - |
| 1777503738 | 19.44° C | 53% | 1036.6 hPa | 0 mm | - | 655 W/m² | - |
| 1777503435 | 19.44° C | 53% | 1036.6 hPa | 0 mm | - | 669 W/m² | - |
| 1777503130 | 19.44° C | 54% | 1036.6 hPa | 0 mm | - | 685 W/m² | - |
| 1777502828 | 18.89° C | 57% | 1036.6 hPa | 0 mm | - | 697 W/m² | - |
| 1777502525 | 18.89° C | 56% | 1036.7 hPa | 0 mm | - | 708 W/m² | - |
| 1777502222 | 18.89° C | 57% | 1036.7 hPa | 0 mm | - | 725 W/m² | - |
| 1777501919 | 18.89° C | 55% | 1036.8 hPa | 0 mm | - | 735 W/m² | - |
| 1777501616 | 18.33° C | 59% | 1036.9 hPa | 0 mm | - | 747 W/m² | - |
| 1777501313 | 18.33° C | 57% | 1036.8 hPa | 0 mm | - | 758 W/m² | - |
| 1777501011 | 18.89° C | 56% | 1036.9 hPa | 0 mm | - | 770 W/m² | - |
* Rain latest hour (hover to see other rain measurements)
** Current wind speed in m/s (hover to see current wind gust speed)